Time;durP1;ratioP1;P1;durP2;ratioP2;P2;SDS_P1;SDS_P2;PMS_P1;PMS_P2;Temp;Humidity;BMP_temperature;BMP_pressure;BME280_temperature;BME280_humidity;BME280_pressure;Samples;Min_cycle;Max_cycle;Signal;HPM_P1;HPM_P2
2021/12/11 00:00:52;;;;;;;2.53;1.70;;;;;;;0.80;98.42;94121.94;4905415;29;20210;-84
2021/12/11 00:03:22;;;;;;;2.80;1.67;;;;;;;0.76;98.52;94118.00;4904605;29;20218;-87
2021/12/11 00:05:51;;;;;;;3.10;1.90;;;;;;;0.72;99.00;94127.66;4904574;29;20193;-87
2021/12/11 00:08:21;;;;;;;3.77;1.70;;;;;;;0.68;99.35;94130.56;4922105;29;20246;-87
2021/12/11 00:10:56;;;;;;;3.17;1.67;;;;;;;0.69;99.31;94129.63;4905231;29;20185;-87
2021/12/11 00:13:26;;;;;;;1.33;1.23;;;;;;;0.66;99.22;94140.09;4904221;29;20185;-87
2021/12/11 00:15:51;;;;;;;3.00;1.63;;;;;;;0.70;99.28;94141.47;4920686;29;20183;-89
2021/12/11 00:18:24;;;;;;;3.63;1.77;;;;;;;0.72;99.74;94140.44;4904331;29;20188;-88
2021/12/11 00:20:59;;;;;;;3.27;1.87;;;;;;;0.67;99.78;94144.28;4905443;29;20565;-89
2021/12/11 00:23:35;;;;;;;3.67;2.63;;;;;;;0.59;100.00;94157.66;4919892;29;20690;-87
2021/12/11 00:26:02;;;;;;;3.30;1.97;;;;;;;0.46;99.83;94157.00;4905285;29;20233;-85
2021/12/11 00:28:27;;;;;;;3.07;2.43;;;;;;;0.34;99.63;94163.06;4907187;29;20190;-86
2021/12/11 00:30:53;;;;;;;1.70;1.60;;;;;;;0.15;99.29;94174.72;4898460;29;20190;-86
2021/12/11 00:33:22;;;;;;;3.10;1.67;;;;;;;0.07;100.00;94176.22;4914150;29;20241;-87
2021/12/11 00:35:49;;;;;;;2.17;1.60;;;;;;;-0.05;100.00;94173.69;4898704;29;20210;-87
2021/12/11 00:38:18;;;;;;;1.30;1.20;;;;;;;-0.11;100.00;94184.34;4898593;29;20194;-90
2021/12/11 00:40:45;;;;;;;2.57;1.60;;;;;;;-0.09;100.00;94186.78;4930065;29;20205;-87
2021/12/11 00:43:16;;;;;;;1.67;1.27;;;;;;;-0.17;100.00;94191.69;4913315;29;20284;-86
2021/12/11 00:45:43;;;;;;;1.60;1.50;;;;;;;-0.19;100.00;94206.28;4914351;29;20186;-86
2021/12/11 00:48:12;;;;;;;2.33;1.50;;;;;;;-0.23;100.00;94207.44;4911841;29;20246;-88
2021/12/11 00:50:50;;;;;;;2.17;1.37;;;;;;;-0.22;100.00;94204.78;4928105;29;20554;-86
2021/12/11 00:53:26;;;;;;;1.00;1.00;;;;;;;-0.25;100.00;94217.78;4896865;29;20224;-87
2021/12/11 00:55:55;;;;;;;1.40;1.30;;;;;;;-0.28;100.00;94221.34;4913115;29;20186;-86
2021/12/11 00:58:22;;;;;;;2.37;1.07;;;;;;;-0.22;100.00;94229.47;4928625;29;20638;-87
2021/12/11 01:00:54;;;;;;;0.73;0.73;;;;;;;-0.29;100.00;94236.78;4928678;29;20249;-86
2021/12/11 01:03:27;;;;;;;0.70;0.70;;;;;;;-0.32;100.00;94240.38;4929443;29;20683;-87
2021/12/11 01:05:55;;;;;;;1.03;0.90;;;;;;;-0.33;100.00;94246.41;4927276;29;20182;-88
2021/12/11 01:08:28;;;;;;;0.77;0.77;;;;;;;-0.38;100.00;94256.13;4927455;29;20190;-86
2021/12/11 01:11:05;;;;;;;1.37;0.90;;;;;;;-0.37;100.00;94257.75;4895598;29;20276;-87
2021/12/11 01:13:34;;;;;;;1.30;0.70;;;;;;;-0.39;100.00;94266.44;4927908;29;20193;-85
2021/12/11 01:16:05;;;;;;;0.70;0.70;;;;;;;-0.37;100.00;94269.69;4911840;29;20286;-87
2021/12/11 01:18:36;;;;;;;0.57;0.57;;;;;;;-0.39;100.00;94269.81;4925039;29;20190;-85
2021/12/11 01:21:12;;;;;;;0.63;0.60;;;;;;;-0.39;100.00;94271.53;4905939;29;20190;-87
2021/12/11 01:26:10;;;;;;;0.53;0.53;;;;;;;-0.38;100.00;94280.81;4918316;29;20194;-86
2021/12/11 01:28:36;;;;;;;0.50;0.43;;;;;;;-0.35;100.00;94283.97;4918120;29;20233;-85
2021/12/11 01:31:05;;;;;;;0.50;0.50;;;;;;;-0.44;100.00;94288.91;4902721;29;20237;-87
2021/12/11 01:33:31;;;;;;;0.60;0.60;;;;;;;-0.35;100.00;94294.19;4900589;29;20666;-84
2021/12/11 01:35:56;;;;;;;0.50;0.50;;;;;;;-0.36;100.00;94307.00;4902269;29;20186;-86
2021/12/11 01:38:24;;;;;;;0.50;0.50;;;;;;;-0.34;100.00;94315.41;4886194;29;20201;-84
2021/12/11 01:40:54;;;;;;;0.40;0.40;;;;;;;-0.40;100.00;94316.63;4917390;29;20676;-87
2021/12/11 01:43:23;;;;;;;0.50;0.50;;;;;;;-0.44;100.00;94320.34;4901268;29;20202;-87
2021/12/11 01:45:51;;;;;;;0.40;0.40;;;;;;;-0.42;100.00;94325.34;4909593;29;20198;-85
2021/12/11 01:48:24;;;;;;;0.50;0.50;;;;;;;-0.38;100.00;94334.38;4900965;29;20270;-84
2021/12/11 01:50:54;;;;;;;0.40;0.40;;;;;;;-0.42;100.00;94340.63;4901094;29;20186;-86
2021/12/11 01:53:25;;;;;;;0.40;0.40;;;;;;;-0.41;100.00;94344.81;4900878;29;20221;-86
2021/12/11 01:55:56;;;;;;;0.30;0.30;;;;;;;-0.43;100.00;94356.88;4901249;29;20553;-86
2021/12/11 01:58:34;;;;;;;0.60;0.60;;;;;;;-0.46;100.00;94352.78;4901194;29;20201;-85
2021/12/11 02:01:09;;;;;;;0.40;0.40;;;;;;;-0.42;100.00;94366.97;4917264;29;20238;-85
2021/12/11 02:03:35;;;;;;;0.37;0.37;;;;;;;-0.41;100.00;94365.22;4915998;29;20273;-86
2021/12/11 02:06:00;;;;;;;1.13;0.30;;;;;;;-0.45;100.00;94372.25;4901039;29;20193;-86
2021/12/11 02:08:32;;;;;;;0.40;0.40;;;;;;;-0.50;100.00;94381.19;4916988;29;20286;-86
2021/12/11 02:10:59;;;;;;;0.60;0.50;;;;;;;-0.46;100.00;94391.03;4900356;29;20189;-85
2021/12/11 02:13:43;;;;;;;0.50;0.50;;;;;;;-0.49;100.00;94393.81;4917227;29;20209;-84
2021/12/11 02:16:38;;;;;;;0.77;0.50;;;;;;;-0.57;100.00;94399.47;4902707;29;20192;-86
2021/12/11 02:19:17;;;;;;;0.40;0.40;;;;;;;-0.52;100.00;94401.69;4901049;29;20209;-85
2021/12/11 02:22:02;;;;;;;0.97;0.70;;;;;;;-0.55;100.00;94409.53;4900306;29;20245;-85
2021/12/11 02:24:39;;;;;;;0.93;0.90;;;;;;;-0.51;100.00;94412.72;4915841;29;20233;-84
2021/12/11 02:27:21;;;;;;;0.90;0.90;;;;;;;-0.57;100.00;94421.59;4900344;29;20186;-85
2021/12/11 02:29:54;;;;;;;1.30;1.20;;;;;;;-0.49;100.00;94429.53;4899910;29;20729;-84
2021/12/11 02:32:32;;;;;;;1.07;1.00;;;;;;;-0.59;100.00;94437.00;4899761;29;20656;-84
2021/12/11 02:35:19;;;;;;;1.27;1.17;;;;;;;-0.55;100.00;94442.69;4899909;29;20674;-84
2021/12/11 02:38:04;;;;;;;1.60;1.50;;;;;;;-0.60;100.00;94445.59;4899358;29;20192;-85
2021/12/11 02:40:44;;;;;;;1.53;1.43;;;;;;;-0.57;100.00;94449.66;4899729;29;20186;-85
2021/12/11 02:43:27;;;;;;;2.60;1.80;;;;;;;-0.60;100.00;94452.41;4898935;29;20229;-84
2021/12/11 02:46:05;;;;;;;2.10;1.90;;;;;;;-0.66;100.00;94455.38;4899224;29;20280;-84
2021/12/11 02:48:37;;;;;;;2.27;2.03;;;;;;;-0.62;100.00;94461.88;4898873;29;20228;-84
2021/12/11 02:51:30;;;;;;;3.17;2.33;;;;;;;-0.51;100.00;94461.97;4899371;29;20178;-84
2021/12/11 02:54:01;;;;;;;2.17;1.97;;;;;;;-0.52;100.00;94465.44;4893831;29;20214;-86
2021/12/11 02:56:33;;;;;;;2.40;2.20;;;;;;;-0.54;100.00;94466.47;4899641;29;20268;-84
2021/12/11 02:59:08;;;;;;;2.40;2.20;;;;;;;-0.52;100.00;94465.44;4899791;29;20211;-84
2021/12/11 03:01:44;;;;;;;2.67;2.47;;;;;;;-0.50;100.00;94486.56;4899498;29;20645;-86
2021/12/11 03:04:30;;;;;;;3.17;2.50;;;;;;;-0.55;100.00;94485.22;4899828;29;20236;-84
2021/12/11 03:06:56;;;;;;;3.13;2.83;;;;;;;-0.55;100.00;94485.22;4899527;29;20567;-84
2021/12/11 03:09:24;;;;;;;2.73;2.50;;;;;;;-0.51;100.00;94496.88;4899659;29;20286;-85
2021/12/11 03:11:50;;;;;;;3.63;3.17;;;;;;;-0.50;100.00;94504.41;4899039;29;20229;-82
2021/12/11 03:14:18;;;;;;;3.33;3.03;;;;;;;-0.54;100.00;94505.53;4916192;29;20261;-84
2021/12/11 03:16:44;;;;;;;2.60;2.40;;;;;;;-0.53;100.00;94507.19;4903727;29;20449;-84
2021/12/11 03:19:12;;;;;;;3.73;2.97;;;;;;;-0.56;100.00;94517.56;4903001;29;20218;-84
2021/12/11 03:21:37;;;;;;;3.27;2.80;;;;;;;-0.59;100.00;94520.34;4902684;29;20189;-83
2021/12/11 03:24:05;;;;;;;2.97;2.70;;;;;;;-0.60;100.00;94526.38;4903704;29;20224;-84
2021/12/11 03:26:30;;;;;;;3.80;3.50;;;;;;;-0.52;100.00;94538.59;4903336;29;20194;-85
2021/12/11 03:28:56;;;;;;;4.57;3.57;;;;;;;-0.54;100.00;94533.56;4902963;29;20194;-85
2021/12/11 03:31:21;;;;;;;4.17;3.43;;;;;;;-0.52;100.00;94541.97;4918202;29;20190;-84
2021/12/11 03:33:53;;;;;;;5.53;4.80;;;;;;;-0.53;100.00;94553.09;4902387;29;20206;-85
2021/12/11 03:36:20;;;;;;;3.80;3.27;;;;;;;-0.52;100.00;94556.44;4887187;29;20194;-85
2021/12/11 03:38:53;;;;;;;4.20;3.80;;;;;;;-0.49;100.00;94567.25;4902324;29;20205;-86
2021/12/11 03:41:19;;;;;;;5.33;3.93;;;;;;;-0.52;100.00;94577.66;4901977;29;20192;-85
2021/12/11 03:43:44;;;;;;;4.83;4.27;;;;;;;-0.50;100.00;94583.47;4887010;29;20221;-84
2021/12/11 03:46:11;;;;;;;4.03;3.10;;;;;;;-0.54;100.00;94589.69;4902311;29;20181;-83
2021/12/11 03:48:49;;;;;;;2.90;2.70;;;;;;;-0.54;100.00;94589.69;4885693;29;20501;-85
2021/12/11 03:51:16;;;;;;;3.60;3.30;;;;;;;-0.53;100.00;94596.44;4902059;29;20747;-84
2021/12/11 03:53:42;;;;;;;3.50;3.20;;;;;;;-0.53;100.00;94596.44;4901797;29;20320;-83
2021/12/11 03:56:10;;;;;;;3.67;3.27;;;;;;;-0.45;100.00;94604.34;4917926;29;20693;-84
2021/12/11 03:58:37;;;;;;;3.20;2.90;;;;;;;-0.55;100.00;94605.09;4902290;29;20272;-83
2021/12/11 04:01:02;;;;;;;3.53;3.23;;;;;;;-0.54;100.00;94609.28;4902338;29;20178;-85
2021/12/11 04:03:30;;;;;;;2.97;2.67;;;;;;;-0.46;100.00;94605.28;4917102;29;20308;-84
2021/12/11 04:05:58;;;;;;;3.67;3.33;;;;;;;-0.47;100.00;94615.59;4901801;29;20650;-84
2021/12/11 04:08:28;;;;;;;3.90;3.60;;;;;;;-0.53;100.00;94616.84;4907119;29;20192;-87
2021/12/11 04:10:54;;;;;;;4.17;3.40;;;;;;;-0.53;100.00;94623.66;4919645;29;20174;-87
2021/12/11 04:13:19;;;;;;;4.33;3.90;;;;;;;-0.53;100.00;94621.94;4932732;29;20182;-87
2021/12/11 04:15:48;;;;;;;5.00;4.37;;;;;;;-0.57;100.00;94635.81;4905109;29;20265;-85
2021/12/11 04:18:13;;;;;;;5.60;4.67;;;;;;;-0.54;100.00;94640.69;4920458;29;20190;-86
2021/12/11 04:20:42;;;;;;;4.90;4.40;;;;;;;-0.59;100.00;94641.00;4905079;29;20257;-86
2021/12/11 04:23:11;;;;;;;14.17;7.07;;;;;;;-0.58;100.00;94649.47;4919900;29;20217;-85
2021/12/11 04:25:38;;;;;;;6.83;5.77;;;;;;;-0.60;100.00;94653.88;4903221;29;20201;-86
2021/12/11 04:28:04;;;;;;;6.33;4.80;;;;;;;-0.63;100.00;94656.59;4920089;29;20177;-85
2021/12/11 04:30:29;;;;;;;6.83;5.50;;;;;;;-0.58;100.00;94662.22;4903597;29;20233;-88
2021/12/11 04:32:56;;;;;;;6.57;5.87;;;;;;;-0.60;100.00;94674.25;4919099;29;20201;-85
2021/12/11 04:35:26;;;;;;;6.83;6.13;;;;;;;-0.60;100.00;94675.09;4903789;29;20250;-87
2021/12/11 04:37:52;;;;;;;6.43;5.70;;;;;;;-0.57;100.00;94676.59;4903996;29;20207;-86
2021/12/11 04:40:21;;;;;;;6.90;5.90;;;;;;;-0.61;100.00;94682.84;4903256;29;20186;-86
2021/12/11 04:45:38;;;;;;;9.03;6.67;;;;;;;-0.57;100.00;94691.91;4918717;29;20213;-85
2021/12/11 04:48:19;;;;;;;6.80;5.57;;;;;;;-0.58;100.00;94687.72;4902631;29;20217;-84
2021/12/11 04:50:59;;;;;;;7.70;6.37;;;;;;;-0.58;100.00;94700.47;4888960;29;20185;-85
2021/12/11 04:53:43;;;;;;;12.17;7.43;;;;;;;-0.57;100.00;94702.09;4904921;29;20182;-87
2021/12/11 05:09:24;;;;;;;15.53;8.33;;;;;;;-0.59;100.00;94732.81;4866235;29;20714;-82
2021/12/11 05:12:27;;;;;;;11.50;9.10;;;;;;;-0.65;100.00;94734.94;4877548;29;20289;-85
2021/12/11 05:15:04;;;;;;;12.07;9.10;;;;;;;-0.63;100.00;94733.09;4878597;29;20317;-84
2021/12/11 05:17:37;;;;;;;10.73;8.47;;;;;;;-0.57;100.00;94742.91;4863296;29;20624;-84
2021/12/11 05:20:16;;;;;;;11.47;9.10;;;;;;;-0.55;100.00;94747.91;4848082;29;20196;-83
2021/12/11 05:22:50;;;;;;;9.67;7.87;;;;;;;-0.53;100.00;94754.56;4863491;29;20218;-84
2021/12/11 05:25:39;;;;;;;10.53;8.10;;;;;;;-0.58;100.00;94761.69;4847014;29;20997;-83
2021/12/11 05:28:16;;;;;;;16.37;8.63;;;;;;;-0.64;100.00;94759.50;4864563;29;20199;-85
2021/12/11 05:31:02;;;;;;;10.67;8.03;;;;;;;-0.62;100.00;94775.53;4878459;29;20197;-85
2021/12/11 05:33:50;;;;;;;17.50;8.33;;;;;;;-0.57;100.00;94788.81;4862703;29;20198;-84
2021/12/11 05:36:32;;;;;;;14.23;9.30;;;;;;;-0.65;100.00;94789.31;4848766;29;20199;-84
2021/12/11 05:42:22;;;;;;;13.50;8.87;;;;;;;-0.62;100.00;94803.56;4865117;29;20316;-85
2021/12/11 05:45:08;;;;;;;10.13;8.47;;;;;;;-0.61;100.00;94803.50;4878354;29;20258;-85
2021/12/11 05:48:03;;;;;;;33.57;10.53;;;;;;;-0.70;100.00;94813.47;4885846;29;20186;-85
2021/12/11 05:50:40;;;;;;;75.97;14.87;;;;;;;-0.66;100.00;94815.72;4884231;29;20281;-85
2021/12/11 05:53:28;;;;;;;15.80;10.53;;;;;;;-0.61;100.00;94826.47;4915260;29;20177;-84
2021/12/11 05:56:11;;;;;;;22.20;11.70;;;;;;;-0.61;100.00;94833.28;4900297;29;20644;-84
2021/12/11 06:02:01;;;;;;;16.77;10.10;;;;;;;-0.64;100.00;94848.75;4916090;29;20200;-84
2021/12/11 06:04:32;;;;;;;13.87;9.97;;;;;;;-0.61;100.00;94853.69;4914924;29;20237;-84
2021/12/11 06:07:02;;;;;;;14.77;10.60;;;;;;;-0.59;100.00;94865.41;4915139;29;20735;-85
2021/12/11 06:09:48;;;;;;;11.87;9.23;;;;;;;-0.55;100.00;94863.47;4900623;29;20229;-84
2021/12/11 06:12:30;;;;;;;12.27;9.30;;;;;;;-0.53;100.00;94865.94;4912461;29;20224;-84
2021/12/11 06:15:03;;;;;;;9.93;8.23;;;;;;;-0.52;100.00;94880.34;4915171;29;20210;-84
2021/12/11 06:18:02;;;;;;;12.93;9.03;;;;;;;-0.61;100.00;94876.63;4884745;29;20289;-84
2021/12/11 06:20:35;;;;;;;11.37;8.00;;;;;;;-0.58;100.00;94884.09;4916579;29;20753;-85
2021/12/11 06:23:30;;;;;;;9.77;8.10;;;;;;;-0.63;100.00;94894.56;4900348;29;20548;-84
2021/12/11 06:26:38;;;;;;;10.27;7.90;;;;;;;-0.56;100.00;94897.56;4900792;29;20183;-84
2021/12/11 06:29:06;;;;;;;8.93;6.93;;;;;;;-0.65;100.00;94903.22;4880645;29;20197;-84
2021/12/11 06:31:43;;;;;;;8.90;7.23;;;;;;;-0.71;100.00;94906.16;4892209;29;20201;-84
2021/12/11 06:34:24;;;;;;;11.00;8.30;;;;;;;-0.60;100.00;94911.44;4875600;29;20695;-84
2021/12/11 06:40:20;;;;;;;11.33;9.17;;;;;;;-0.55;100.00;94923.88;4839170;29;20753;-80
2021/12/11 06:42:55;;;;;;;10.90;8.57;;;;;;;-0.50;100.00;94924.41;4823563;29;20200;-81
2021/12/11 06:45:22;;;;;;;11.77;8.87;;;;;;;-0.54;100.00;94933.97;4837662;29;20255;-79
2021/12/11 06:47:50;;;;;;;10.30;8.87;;;;;;;-0.53;100.00;94943.28;4839355;29;20283;-80
2021/12/11 06:50:19;;;;;;;14.17;10.07;;;;;;;-0.57;100.00;94947.75;4846193;29;20249;-86
2021/12/11 06:52:48;;;;;;;13.27;10.30;;;;;;;-0.50;100.00;94948.19;4845899;29;20248;-82
2021/12/11 06:55:52;;;;;;;13.63;10.40;;;;;;;-0.51;100.00;94955.94;4830050;29;20253;-88
2021/12/11 06:58:25;;;;;;;14.10;9.90;;;;;;;-0.56;100.00;94961.31;4844794;29;20684;-81
2021/12/11 12:05:35;;;;;;;10.40;8.80;;;;;;;1.66;85.55;95490.88;4881911;29;20231;-79
2021/12/11 12:08:02;;;;;;;9.57;8.07;;;;;;;1.75;86.23;95492.06;4882299;29;20188;-80
2021/12/11 12:10:27;;;;;;;13.00;9.53;;;;;;;1.79;86.00;95495.25;4866969;29;20180;-83
2021/12/11 12:12:54;;;;;;;14.67;12.63;;;;;;;1.84;85.52;95490.66;4866684;29;20722;-83
2021/12/11 12:15:28;;;;;;;13.80;11.93;;;;;;;1.81;85.65;95501.94;4856452;29;20227;-84
2021/12/11 12:17:54;;;;;;;10.77;8.63;;;;;;;1.72;84.69;95505.06;4866175;29;20626;-81
2021/12/11 12:20:20;;;;;;;11.33;8.33;;;;;;;1.68;85.57;95504.44;4882240;29;20222;-81
2021/12/11 12:22:46;;;;;;;11.23;8.63;;;;;;;1.60;85.47;95508.38;4863974;29;20269;-82
2021/12/11 12:25:12;;;;;;;9.80;8.27;;;;;;;1.67;85.06;95517.31;4870353;29;20211;-80
2021/12/11 12:27:39;;;;;;;9.23;7.60;;;;;;;1.37;85.79;95518.28;4865338;29;20230;-81
2021/12/11 12:30:28;;;;;;;11.20;9.00;;;;;;;1.38;86.77;95519.91;4879008;29;20201;-81
2021/12/11 12:32:55;;;;;;;10.73;8.17;;;;;;;1.21;87.23;95521.84;4879571;29;20555;-80
2021/12/11 12:53:44;;;;;;;;;;;;;;;;;;;;;
2021/12/11 13:29:17;;;;;;;10.03;8.50;;;;;;;1.25;89.03;95589.81;4897137;29;20279;-83
2021/12/11 13:31:49;;;;;;;11.77;9.17;;;;;;;1.28;88.46;95598.13;4881478;29;20187;-82
2021/12/11 13:34:14;;;;;;;9.83;7.90;;;;;;;1.15;88.63;95597.22;4899785;29;20259;-83
2021/12/11 13:36:41;;;;;;;12.27;9.23;;;;;;;1.25;88.02;95602.63;4867622;29;20210;-85
2021/12/11 13:39:12;;;;;;;11.00;9.33;;;;;;;1.20;88.61;95609.72;4882635;29;20191;-83
2021/12/11 13:41:44;;;;;;;15.87;11.63;;;;;;;1.10;89.23;95612.81;4867255;29;20175;-80
2021/12/11 13:44:11;;;;;;;18.43;12.37;;;;;;;1.11;89.04;95618.75;4879520;29;20218;-81
2021/12/11 13:46:39;;;;;;;14.03;10.87;;;;;;;1.18;88.97;95626.91;4881884;29;20250;-81
2021/12/11 13:49:05;;;;;;;12.93;9.50;;;;;;;1.31;89.09;95628.66;4886396;29;20218;-80
2021/12/11 13:51:33;;;;;;;11.20;8.77;;;;;;;1.18;88.68;95637.97;4882312;29;20195;-81
2021/12/11 13:53:59;;;;;;;10.67;9.57;;;;;;;1.35;88.01;95645.47;4897447;29;20203;-81
2021/12/11 13:56:30;;;;;;;11.57;10.10;;;;;;;1.56;87.96;95645.94;4882467;29;20179;-81
2021/12/11 13:58:56;;;;;;;11.67;10.27;;;;;;;1.67;88.16;95650.41;4881642;29;20223;-82
2021/12/11 14:01:28;;;;;;;9.03;6.57;;;;;;;1.62;86.42;95655.00;4866509;29;20186;-81
2021/12/11 14:03:54;;;;;;;10.67;9.47;;;;;;;1.77;86.68;95664.34;4865909;29;20219;-81
2021/12/11 14:06:21;;;;;;;9.40;8.33;;;;;;;1.62;86.50;95667.81;4881744;29;20684;-83
2021/12/11 14:08:47;;;;;;;10.37;9.27;;;;;;;1.32;86.33;95668.66;4881772;29;20187;-82
2021/12/11 14:11:16;;;;;;;9.17;8.07;;;;;;;1.27;87.11;95673.25;4865888;29;20186;-80
2021/12/11 14:13:42;;;;;;;9.67;8.17;;;;;;;1.29;86.72;95681.66;4865747;29;20274;-83
2021/12/11 14:16:09;;;;;;;10.17;8.07;;;;;;;1.24;86.93;95683.66;4884593;29;20243;-83
2021/12/11 14:18:36;;;;;;;11.40;9.37;;;;;;;1.20;87.12;95684.72;4868321;29;20187;-82
2021/12/11 14:21:03;;;;;;;9.83;8.20;;;;;;;1.02;86.65;95696.00;4868487;29;20183;-82
2021/12/11 14:23:34;;;;;;;9.13;7.47;;;;;;;0.96;87.50;95704.84;4883221;29;20215;-82
2021/12/11 14:26:00;;;;;;;9.00;7.03;;;;;;;0.77;86.91;95696.53;4884719;29;20175;-82
2021/12/11 14:28:27;;;;;;;9.73;8.17;;;;;;;0.82;87.29;95703.06;4883821;29;20187;-83
2021/12/11 14:30:59;;;;;;;9.50;7.50;;;;;;;0.75;87.79;95714.53;4868555;29;20250;-84
2021/12/11 14:33:25;;;;;;;10.30;8.40;;;;;;;0.70;88.43;95716.50;4883049;29;20186;-83
2021/12/11 14:35:54;;;;;;;10.53;8.63;;;;;;;0.67;88.15;95709.00;4883413;29;20182;-83
2021/12/11 14:38:20;;;;;;;12.17;8.20;;;;;;;0.60;88.40;95712.78;4883602;29;20550;-84
2021/12/11 14:40:47;;;;;;;12.40;8.93;;;;;;;0.52;89.11;95720.88;4882660;29;20183;-82
2021/12/11 14:43:19;;;;;;;11.43;8.87;;;;;;;0.41;89.17;95722.34;4883154;29;20183;-84
2021/12/11 14:45:44;;;;;;;12.57;8.50;;;;;;;0.37;89.66;95721.72;4884038;29;20663;-83
2021/12/11 14:48:10;;;;;;;11.30;9.33;;;;;;;0.27;90.30;95731.59;4882630;29;20194;-82
2021/12/11 14:50:40;;;;;;;11.00;8.67;;;;;;;0.14;90.88;95735.69;4882413;29;20182;-82
2021/12/11 14:53:07;;;;;;;11.93;9.03;;;;;;;0.21;91.08;95742.13;4881368;29;20175;-82
2021/12/11 14:55:42;;;;;;;13.73;9.73;;;;;;;0.25;91.16;95737.66;4883425;29;20213;-81
2021/12/11 14:58:08;;;;;;;12.57;9.97;;;;;;;0.19;91.43;95743.94;4866779;29;20220;-81
2021/12/11 15:00:36;;;;;;;16.27;12.37;;;;;;;0.22;91.80;95750.59;4882752;29;20187;-81
2021/12/11 15:03:02;;;;;;;16.70;12.50;;;;;;;0.24;91.50;95747.06;4899137;29;20234;-82
2021/12/11 15:05:40;;;;;;;19.37;15.13;;;;;;;0.24;91.60;95752.16;4880866;29;20211;-79
2021/12/11 15:08:07;;;;;;;13.67;11.30;;;;;;;0.26;91.85;95757.19;4883210;29;20191;-82
2021/12/11 15:10:34;;;;;;;13.17;9.70;;;;;;;0.26;92.28;95764.84;4881722;29;20190;-81
2021/12/11 15:12:59;;;;;;;12.13;10.57;;;;;;;0.26;92.03;95770.78;4867366;29;20235;-82
2021/12/11 15:15:26;;;;;;;14.57;11.50;;;;;;;0.26;92.55;95772.53;4883635;29;20218;-83
2021/12/11 15:17:52;;;;;;;13.73;11.90;;;;;;;0.27;92.24;95772.47;4884872;29;20730;-80
2021/12/11 15:20:28;;;;;;;14.80;12.37;;;;;;;0.31;92.53;95779.97;4884630;29;20218;-79
2021/12/11 15:22:54;;;;;;;17.53;13.87;;;;;;;0.34;92.33;95797.66;4887251;29;20293;-82
2021/12/11 15:25:20;;;;;;;29.23;24.83;;;;;;;0.33;92.53;95791.72;4886747;29;20754;-82
2021/12/11 15:27:46;;;;;;;16.73;14.27;;;;;;;0.33;92.84;95790.91;4888459;29;20206;-82
2021/12/11 15:30:15;;;;;;;18.30;13.87;;;;;;;0.32;93.46;95794.38;4868587;29;20190;-81
2021/12/11 15:32:41;;;;;;;13.03;10.33;;;;;;;0.31;93.22;95797.84;4884495;29;20190;-82
2021/12/11 15:35:11;;;;;;;11.57;10.17;;;;;;;0.25;93.95;95794.69;4885243;29;20203;-81
2021/12/11 15:37:38;;;;;;;17.23;13.07;;;;;;;0.29;93.48;95800.47;4869170;29;20196;-83
2021/12/11 15:40:08;;;;;;;19.57;15.33;;;;;;;0.28;94.21;95806.50;4870636;29;20187;-83
2021/12/11 15:42:34;;;;;;;15.77;12.53;;;;;;;0.26;94.37;95809.09;4868345;29;20179;-83
2021/12/11 15:45:00;;;;;;;16.20;12.27;;;;;;;0.28;94.15;95804.75;4883671;29;20226;-84
2021/12/11 15:53:50;;;;;;;13.87;10.57;;;;;;;0.27;94.86;95807.41;4828547;29;20286;-85
2021/12/11 15:56:18;;;;;;;14.10;11.73;;;;;;;0.25;95.20;95815.13;4884583;29;20190;-83
2021/12/11 15:58:48;;;;;;;15.13;11.93;;;;;;;0.23;95.33;95811.00;4884022;29;20245;-82
2021/12/11 16:11:59;;;;;;;16.47;12.90;;;;;;;0.08;97.95;95824.53;4843440;29;20233;-85
2021/12/11 16:15:10;;;;;;;18.87;13.17;;;;;;;0.09;98.12;95833.84;4716430;30;20213;-82
2021/12/11 16:18:40;;;;;;;21.47;15.03;;;;;;;0.10;98.19;95831.25;4715810;30;20281;-83
2021/12/11 16:21:36;;;;;;;23.70;17.43;;;;;;;0.07;98.40;95828.81;4665778;30;20203;-83
2021/12/11 16:24:27;;;;;;;19.10;14.70;;;;;;;-0.01;99.06;95838.59;4667683;30;20733;-83
2021/12/11 16:31:05;;;;;;;15.87;11.97;;;;;;;0.10;99.10;95835.53;4697431;30;20237;-83
2021/12/11 16:41:48;;;;;;;12.67;10.23;;;;;;;0.13;99.33;95851.50;4880651;29;20226;-84
2021/12/11 16:45:27;;;;;;;10.20;8.83;;;;;;;0.07;99.51;95858.63;4868006;29;20254;-84
2021/12/11 16:48:03;;;;;;;12.30;10.23;;;;;;;0.10;99.30;95861.88;4806088;29;20293;-84
2021/12/11 16:50:48;;;;;;;13.67;11.27;;;;;;;0.14;99.49;95872.75;4815803;29;20676;-84
2021/12/11 16:53:16;;;;;;;11.43;9.23;;;;;;;0.19;99.44;95870.81;4806583;29;20194;-81
2021/12/11 16:59:21;;;;;;;10.33;7.83;;;;;;;0.22;99.09;95873.22;4797808;29;20224;-84
2021/12/11 17:01:57;;;;;;;10.83;7.20;;;;;;;0.22;98.95;95878.31;4786079;29;20195;-83
2021/12/11 17:04:42;;;;;;;10.43;8.30;;;;;;;0.24;99.07;95890.09;4771197;30;20230;-82
2021/12/11 17:07:25;;;;;;;10.93;8.37;;;;;;;0.29;98.73;95892.44;4786535;29;20650;-83
2021/12/11 17:10:09;;;;;;;8.87;7.93;;;;;;;0.38;98.96;95893.69;4805942;29;20206;-81
2021/12/11 17:12:37;;;;;;;8.37;7.43;;;;;;;0.38;98.84;95891.97;4819197;29;20277;-82
2021/12/11 17:15:14;;;;;;;8.70;7.30;;;;;;;0.36;98.92;95904.00;4793234;29;20342;-82
2021/12/11 17:17:42;;;;;;;10.17;7.00;;;;;;;0.34;99.14;95905.78;4811319;29;20237;-84
2021/12/11 17:20:15;;;;;;;9.53;7.43;;;;;;;0.33;98.83;95910.97;4839811;29;20197;-84
2021/12/11 17:22:58;;;;;;;;;;;;;;;;;;;;;
2021/12/11 17:25:29;;;;;;;10.40;7.13;;;;;;;0.40;98.57;95914.88;4840529;29;20708;-84
2021/12/11 17:28:17;;;;;;;10.33;8.20;;;;;;;0.36;99.01;95923.63;4840738;29;20233;-83
2021/12/11 17:30:54;;;;;;;12.00;8.57;;;;;;;0.44;98.87;95924.03;4840226;29;20197;-82
2021/12/11 17:33:24;;;;;;;8.23;6.77;;;;;;;0.43;98.76;95920.66;4825698;29;20197;-84
2021/12/11 17:35:50;;;;;;;10.03;7.87;;;;;;;0.43;98.79;95924.94;4858913;29;20199;-82
2021/12/11 17:38:15;;;;;;;9.30;7.37;;;;;;;0.45;99.17;95925.72;4862825;29;20263;-83
2021/12/11 17:40:42;;;;;;;9.60;7.83;;;;;;;0.56;98.89;95931.91;4862698;29;20226;-83
2021/12/11 17:43:08;;;;;;;10.13;8.07;;;;;;;0.47;99.42;95929.84;4861895;29;20220;-82
2021/12/11 17:45:36;;;;;;;11.50;9.13;;;;;;;0.47;99.44;95940.06;4872200;29;20215;-84
2021/12/11 17:48:03;;;;;;;10.20;8.07;;;;;;;0.44;99.65;95944.47;4871541;29;20188;-84
2021/12/11 17:50:32;;;;;;;12.20;9.57;;;;;;;0.44;100.00;95940.22;4861953;29;20199;-84
2021/12/11 17:52:58;;;;;;;16.10;11.30;;;;;;;0.42;100.00;95948.84;4859504;29;20218;-84
2021/12/11 17:55:31;;;;;;;34.97;20.13;;;;;;;0.40;100.00;95936.16;4845623;29;20290;-83
2021/12/11 17:57:57;;;;;;;20.87;13.87;;;;;;;0.37;100.00;95940.59;4847078;29;20270;-83
2021/12/11 18:00:29;;;;;;;44.40;24.10;;;;;;;0.41;100.00;95949.75;4862139;29;20191;-86
2021/12/11 18:02:55;;;;;;;25.93;16.43;;;;;;;0.43;100.00;95950.50;4861772;29;20674;-84
2021/12/11 18:05:29;;;;;;;24.80;13.87;;;;;;;0.36;100.00;95950.00;4861797;29;20212;-84
2021/12/11 18:07:57;;;;;;;17.53;13.40;;;;;;;0.40;100.00;95951.47;4862900;29;20197;-84
2021/12/11 18:10:26;;;;;;;16.83;11.80;;;;;;;0.43;100.00;95956.44;4862281;29;20323;-84
2021/12/11 18:13:07;;;;;;;17.77;12.80;;;;;;;0.43;100.00;95956.44;4861776;29;20243;-87
2021/12/11 18:15:37;;;;;;;19.10;13.33;;;;;;;0.48;100.00;95953.66;4863606;29;20744;-85
2021/12/11 18:18:12;;;;;;;21.40;14.67;;;;;;;0.48;100.00;95962.16;4862358;29;20568;-85
2021/12/11 18:20:50;;;;;;;17.37;12.03;;;;;;;0.49;100.00;95963.78;4828462;29;20196;-83
2021/12/11 18:23:16;;;;;;;16.50;12.17;;;;;;;0.50;100.00;95970.56;4860764;29;20242;-83
2021/12/11 18:26:19;;;;;;;19.53;12.70;;;;;;;0.46;100.00;95979.28;4879009;29;20210;-89
2021/12/11 18:29:17;;;;;;;18.17;12.50;;;;;;;0.48;100.00;95989.44;4859798;29;20603;-87
2021/12/11 18:35:10;;;;;;;18.97;13.63;;;;;;;0.54;100.00;95995.06;5132331;23;20344;-82
2021/12/11 18:37:42;;;;;;;20.60;16.93;;;;;;;0.50;100.00;95996.09;4880121;29;20220;-83
2021/12/11 18:40:40;;;;;;;16.83;13.40;;;;;;;0.54;100.00;95999.34;4865641;29;20198;-83
2021/12/11 18:43:14;;;;;;;16.83;11.70;;;;;;;0.45;100.00;96004.91;4824810;29;20210;-82
2021/12/11 18:58:35;;;;;;;13.43;9.40;;;;;;;0.48;100.00;96009.88;4895206;29;20338;-84
2021/12/11 19:07:43;;;;;;;12.53;9.27;;;;;;;0.52;100.00;96040.28;4896984;29;20258;-83
2021/12/11 19:10:32;;;;;;;19.40;13.00;;;;;;;0.49;100.00;96031.97;4880246;29;20278;-85
2021/12/11 19:12:58;;;;;;;12.63;8.83;;;;;;;0.53;99.75;96036.88;4867116;29;20206;-81
2021/12/11 19:15:34;;;;;;;13.10;8.00;;;;;;;0.52;99.54;96036.91;4863763;29;20203;-79